createdAt,value
2018-06-10T00:00:32.973Z,19.50
2018-06-10T00:03:00.749Z,19.40
2018-06-10T00:05:28.381Z,19.30
2018-06-10T00:07:56.018Z,19.20
2018-06-10T00:10:23.652Z,19.00
2018-06-10T00:12:51.252Z,18.90
2018-06-10T00:15:19.867Z,18.80
2018-06-10T00:17:47.477Z,18.80
2018-06-10T00:20:15.119Z,18.90
2018-06-10T00:22:42.733Z,19.00
2018-06-10T00:25:10.368Z,18.80
2018-06-10T00:27:37.976Z,18.70
2018-06-10T00:30:05.611Z,18.70
2018-06-10T00:32:33.213Z,18.60
2018-06-10T00:35:00.829Z,18.80
2018-06-10T00:37:28.436Z,19.00
2018-06-10T00:42:24.564Z,18.90
2018-06-10T00:44:52.748Z,18.80
2018-06-10T00:47:20.369Z,18.60
2018-06-10T00:49:47.988Z,18.50
2018-06-10T00:52:15.601Z,18.60
2018-06-10T00:54:43.244Z,18.60
2018-06-10T00:57:10.860Z,18.60
2018-06-10T00:59:38.460Z,18.60
2018-06-10T01:02:06.196Z,18.60
2018-06-10T01:04:33.844Z,18.60
2018-06-10T01:07:01.492Z,18.60
2018-06-10T01:09:29.129Z,18.50
2018-06-10T01:11:56.745Z,18.50
2018-06-10T01:14:24.360Z,18.40
2018-06-10T01:16:52.005Z,18.40
2018-06-10T01:19:19.616Z,18.30
2018-06-10T01:21:47.252Z,18.40
2018-06-10T01:24:14.847Z,18.30
2018-06-10T01:29:19.808Z,18.20
2018-06-10T01:31:47.416Z,18.20
2018-06-10T01:34:16.060Z,18.10
2018-06-10T01:36:43.684Z,17.90
2018-06-10T01:39:11.509Z,17.80
2018-06-10T01:41:39.100Z,17.70
2018-06-10T01:44:06.748Z,17.60
2018-06-10T01:46:34.357Z,17.50
2018-06-10T01:49:02.176Z,17.40
2018-06-10T01:51:29.788Z,17.10
2018-06-10T01:53:57.500Z,17.00
2018-06-10T01:56:25.148Z,17.00
2018-06-10T01:58:52.765Z,17.00
2018-06-10T02:01:20.405Z,16.90
2018-06-10T02:06:16.308Z,17.00
2018-06-10T02:08:43.935Z,17.10
2018-06-10T02:11:11.556Z,17.20
2018-06-10T02:13:39.180Z,17.30
2018-06-10T02:16:06.853Z,17.40
2018-06-10T02:18:34.498Z,17.30
2018-06-10T02:21:02.094Z,17.20
2018-06-10T02:23:29.756Z,17.10
2018-06-10T02:25:57.420Z,17.10
2018-06-10T02:28:25.016Z,17.00
2018-06-10T02:30:52.625Z,17.10
2018-06-10T02:33:20.256Z,17.20
2018-06-10T02:35:47.889Z,17.10
2018-06-10T02:38:15.489Z,17.10
2018-06-10T02:40:43.089Z,17.10
2018-06-10T02:43:10.835Z,17.00
2018-06-10T02:45:39.477Z,16.80
2018-06-10T02:48:07.128Z,16.80
2018-06-10T02:50:35.426Z,16.90
2018-06-10T02:53:03.056Z,16.90
2018-06-10T02:55:30.672Z,17.00
2018-06-10T02:58:05.468Z,17.00
2018-06-10T03:00:33.073Z,17.10
2018-06-10T03:03:01.682Z,17.10
2018-06-10T03:07:56.869Z,17.10
2018-06-10T03:10:24.606Z,17.20
2018-06-10T03:12:52.937Z,17.20
2018-06-10T03:15:20.536Z,17.00
2018-06-10T03:17:48.162Z,17.10
2018-06-10T03:20:15.829Z,17.20
2018-06-10T03:22:43.462Z,17.20
2018-06-10T03:25:11.093Z,17.30
2018-06-10T03:27:39.564Z,17.30
2018-06-10T03:30:07.209Z,17.30
2018-06-10T03:32:34.822Z,17.30
2018-06-10T03:35:02.457Z,17.10
2018-06-10T03:37:30.070Z,17.10
2018-06-10T03:44:52.799Z,16.90
2018-06-10T03:47:20.444Z,17.00
2018-06-10T03:49:48.045Z,16.80
2018-06-10T03:52:15.685Z,16.90
2018-06-10T03:54:43.296Z,16.90
2018-06-10T03:57:10.917Z,16.90
2018-06-10T03:59:38.521Z,17.10
2018-06-10T04:02:06.155Z,17.10
2018-06-10T04:04:33.781Z,17.20
2018-06-10T04:07:01.404Z,17.30
2018-06-10T04:09:29.024Z,17.30
2018-06-10T04:11:56.624Z,17.20
2018-06-10T04:14:24.908Z,17.20
2018-06-10T04:16:52.521Z,17.00
2018-06-10T04:19:20.119Z,17.20
2018-06-10T04:21:47.742Z,17.20
2018-06-10T04:24:15.336Z,17.30
2018-06-10T04:26:42.985Z,17.30
2018-06-10T04:29:10.729Z,17.20
2018-06-10T04:31:38.334Z,17.30
2018-06-10T04:34:05.969Z,17.40
2018-06-10T04:36:33.610Z,17.50
2018-06-10T04:39:01.204Z,17.60
2018-06-10T04:41:28.801Z,17.70
2018-06-10T04:43:56.417Z,17.90
2018-06-10T04:46:24.026Z,18.00
2018-06-10T04:48:52.583Z,18.20
2018-06-10T04:51:20.164Z,18.30
2018-06-10T04:53:47.774Z,18.30
2018-06-10T04:56:15.419Z,18.40
2018-06-10T04:58:44.012Z,18.50
2018-06-10T05:01:11.632Z,18.60
2018-06-10T05:03:40.700Z,18.60
2018-06-10T05:06:08.304Z,18.50
2018-06-10T05:08:35.900Z,18.40
2018-06-10T05:11:03.501Z,18.60
2018-06-10T05:16:00.688Z,18.80
2018-06-10T05:18:28.300Z,18.90
2018-06-10T05:20:55.908Z,19.10
2018-06-10T05:23:24.613Z,19.20
2018-06-10T05:25:52.215Z,19.30
2018-06-10T05:28:19.820Z,19.40
2018-06-10T05:30:47.419Z,19.40
2018-06-10T05:33:15.001Z,19.50
2018-06-10T05:35:42.605Z,19.60
2018-06-10T05:38:10.193Z,19.60
2018-06-10T05:40:38.384Z,19.80
2018-06-10T05:43:06.056Z,20.00
2018-06-10T05:45:33.652Z,20.10
2018-06-10T05:50:28.763Z,20.30
2018-06-10T05:52:56.383Z,21.10
2018-06-10T05:55:23.995Z,20.40
2018-06-10T05:57:51.590Z,20.30
2018-06-10T06:00:19.185Z,20.40
2018-06-10T06:02:46.781Z,20.70
2018-06-10T06:05:14.389Z,20.90
2018-06-10T06:07:41.984Z,20.90
2018-06-10T06:10:09.592Z,21.10
2018-06-10T06:12:37.212Z,21.20
2018-06-10T06:15:05.033Z,21.30
2018-06-10T06:17:32.624Z,21.30
2018-06-10T06:20:01.213Z,21.30
2018-06-10T06:22:28.795Z,21.30
2018-06-10T06:24:56.517Z,21.40
2018-06-10T06:27:24.147Z,21.50
2018-06-10T06:29:51.720Z,21.50
2018-06-10T06:32:20.089Z,21.70
2018-06-10T06:34:47.676Z,21.90
2018-06-10T06:37:15.285Z,22.00
2018-06-10T06:39:42.873Z,22.00
2018-06-10T06:42:10.461Z,22.20
2018-06-10T06:44:38.088Z,22.40
2018-06-10T06:47:05.759Z,22.30
2018-06-10T06:49:33.324Z,22.50
2018-06-10T06:52:00.917Z,22.50
2018-06-10T06:54:28.556Z,22.40
2018-06-10T06:56:56.173Z,22.60
2018-06-10T06:59:23.768Z,22.90
2018-06-10T07:01:51.357Z,22.90
2018-06-10T07:04:18.996Z,22.90
2018-06-10T07:06:46.693Z,23.00
2018-06-10T07:09:14.397Z,23.30
2018-06-10T07:11:41.996Z,23.20
2018-06-10T07:14:09.584Z,23.10
2018-06-10T07:16:37.175Z,23.10
2018-06-10T07:19:04.888Z,23.20
2018-06-10T07:21:32.512Z,23.40
2018-06-10T07:24:00.101Z,23.60
2018-06-10T07:26:27.727Z,23.50
2018-06-10T07:28:55.332Z,23.70
2018-06-10T07:31:23.967Z,23.60
2018-06-10T07:33:51.549Z,24.10
2018-06-10T07:36:19.159Z,23.40
2018-06-10T07:38:46.803Z,23.50
2018-06-10T07:41:14.509Z,23.70
2018-06-10T07:43:42.136Z,23.80
2018-06-10T07:46:13.025Z,23.80
2018-06-10T07:48:40.628Z,24.00
2018-06-10T07:51:08.260Z,24.40
2018-06-10T07:53:37.712Z,24.50
2018-06-10T07:56:05.357Z,24.40
2018-06-10T07:58:32.952Z,24.40
2018-06-10T08:01:00.563Z,24.40
2018-06-10T08:03:28.188Z,24.40
2018-06-10T08:05:55.812Z,24.70
2018-06-10T08:08:23.420Z,24.70
2018-06-10T08:10:51.028Z,24.60
2018-06-10T08:13:18.643Z,24.50
2018-06-10T08:15:46.237Z,24.60
2018-06-10T08:18:16.628Z,24.90
2018-06-10T08:20:44.213Z,25.00
2018-06-10T08:23:11.795Z,25.10
2018-06-10T08:25:39.401Z,25.10
2018-06-10T08:28:07.000Z,25.20
2018-06-10T08:30:34.653Z,25.50
2018-06-10T08:33:02.236Z,25.60
2018-06-10T08:37:57.348Z,26.00
2018-06-10T08:40:25.084Z,26.30
2018-06-10T08:42:52.776Z,26.30
2018-06-10T08:45:20.378Z,26.10
2018-06-10T08:47:47.965Z,26.10
2018-06-10T08:50:15.677Z,26.30
2018-06-10T08:52:43.276Z,26.60
2018-06-10T08:55:10.881Z,26.60
2018-06-10T08:57:38.476Z,26.50
2018-06-10T09:00:06.080Z,26.50
2018-06-10T09:02:33.759Z,26.80
2018-06-10T09:05:01.358Z,26.90
2018-06-10T09:07:28.960Z,26.70
2018-06-10T09:09:56.536Z,26.70
2018-06-10T09:12:24.156Z,26.70
2018-06-10T09:14:51.770Z,26.90
2018-06-10T09:17:19.493Z,27.00
2018-06-10T09:19:47.076Z,26.80
2018-06-10T09:22:14.717Z,27.00
2018-06-10T09:24:43.324Z,27.40
2018-06-10T09:27:10.945Z,28.00
2018-06-10T09:29:38.537Z,28.20
2018-06-10T09:32:06.181Z,28.20
2018-06-10T09:34:34.545Z,28.20
2018-06-10T09:37:02.164Z,27.90
2018-06-10T09:39:29.764Z,27.70
2018-06-10T09:41:57.998Z,27.60
2018-06-10T09:44:25.719Z,27.60
2018-06-10T09:46:53.312Z,27.70
2018-06-10T09:49:21.609Z,28.10
2018-06-10T09:51:49.220Z,28.60
2018-06-10T09:54:16.820Z,29.20
2018-06-10T09:56:45.429Z,29.50
2018-06-10T09:59:13.033Z,29.20
2018-06-10T10:01:40.657Z,28.80
2018-06-10T10:04:08.344Z,28.80
2018-06-10T10:06:35.977Z,28.90
2018-06-10T10:09:05.520Z,28.90
2018-06-10T10:11:33.133Z,28.70
2018-06-10T10:14:00.726Z,28.50
2018-06-10T10:16:28.302Z,28.40
2018-06-10T10:18:55.904Z,28.20
2018-06-10T10:21:24.516Z,27.80
2018-06-10T10:23:52.121Z,27.30
2018-06-10T10:26:19.723Z,27.00
2018-06-10T10:28:47.340Z,27.30
2018-06-10T10:31:14.928Z,27.50
2018-06-10T10:33:43.514Z,27.80
2018-06-10T10:36:11.109Z,28.00
2018-06-10T10:38:38.708Z,28.10
2018-06-10T10:41:07.101Z,28.40
2018-06-10T10:43:34.701Z,28.40
2018-06-10T10:46:02.292Z,28.30
2018-06-10T10:48:29.868Z,28.10
2018-06-10T10:50:57.467Z,28.10
2018-06-10T10:53:25.143Z,27.90
2018-06-10T10:55:52.737Z,27.80
2018-06-10T10:58:20.345Z,27.90
2018-06-10T11:00:47.941Z,28.20
2018-06-10T11:03:15.528Z,28.90
2018-06-10T11:05:43.108Z,29.50
2018-06-10T11:08:10.798Z,29.80
2018-06-10T11:10:38.512Z,30.00
2018-06-10T11:13:06.124Z,30.30
2018-06-10T11:15:33.828Z,30.50
2018-06-10T11:18:01.501Z,30.10
2018-06-10T11:20:29.147Z,29.90
2018-06-10T11:22:56.736Z,29.30
2018-06-10T11:25:24.333Z,28.70
2018-06-10T11:27:51.944Z,28.40
2018-06-10T11:30:19.531Z,28.70
2018-06-10T11:32:47.129Z,29.60
2018-06-10T11:35:14.717Z,29.90
2018-06-10T11:37:42.300Z,30.10
2018-06-10T11:40:10.768Z,29.90
2018-06-10T11:42:38.353Z,30.20
2018-06-10T11:45:05.942Z,30.30
2018-06-10T11:47:33.533Z,30.30
2018-06-10T11:50:01.172Z,30.80
2018-06-10T11:52:28.793Z,30.90
2018-06-10T11:54:56.413Z,30.90
2018-06-10T11:57:23.996Z,31.00
2018-06-10T11:59:52.576Z,31.10
2018-06-10T12:02:20.172Z,31.20
2018-06-10T12:04:47.761Z,31.30
2018-06-10T12:07:15.357Z,31.30
2018-06-10T12:09:42.932Z,30.90
2018-06-10T12:12:10.540Z,30.90
2018-06-10T12:14:38.150Z,30.40
2018-06-10T12:17:06.385Z,30.10
2018-06-10T12:19:34.828Z,30.30
2018-06-10T12:22:02.480Z,30.40
2018-06-10T12:24:30.101Z,30.20
2018-06-10T12:26:57.728Z,30.60
2018-06-10T12:29:25.369Z,30.50
2018-06-10T12:31:52.962Z,30.80
2018-06-10T12:34:21.152Z,31.50
2018-06-10T12:36:48.736Z,31.70
2018-06-10T12:39:16.328Z,31.30
2018-06-10T12:41:44.634Z,31.00
2018-06-10T12:44:12.221Z,30.50
2018-06-10T12:46:39.827Z,29.90
2018-06-10T12:54:02.524Z,29.00
2018-06-10T12:56:30.711Z,28.80
2018-06-10T12:58:58.916Z,28.70
2018-06-10T13:01:26.545Z,28.50
2018-06-10T13:03:54.127Z,28.90
2018-06-10T13:06:21.790Z,29.00
2018-06-10T13:08:49.416Z,29.20
2018-06-10T13:11:17.016Z,29.40
2018-06-10T13:13:44.608Z,30.20
2018-06-10T13:16:12.248Z,30.90
2018-06-10T13:18:40.396Z,30.30
2018-06-10T13:21:07.987Z,29.20
2018-06-10T13:23:35.585Z,28.90
2018-06-10T13:26:03.463Z,30.10
2018-06-10T13:28:31.092Z,31.10
2018-06-10T13:30:58.758Z,31.00
2018-06-10T13:33:26.360Z,30.10
2018-06-10T13:35:53.988Z,29.30
2018-06-10T13:40:49.077Z,28.30
2018-06-10T13:43:16.660Z,29.00
2018-06-10T13:45:44.262Z,30.10
2018-06-10T13:48:11.991Z,31.60
2018-06-10T13:50:39.781Z,33.40
2018-06-10T13:53:07.376Z,34.30
2018-06-10T13:55:34.960Z,35.30
2018-06-10T14:00:30.100Z,36.20
2018-06-10T14:02:57.682Z,36.50
2018-06-10T14:05:25.268Z,36.70
2018-06-10T14:07:53.880Z,37.10
2018-06-10T14:10:21.485Z,37.00
2018-06-10T14:12:49.121Z,37.30
2018-06-10T14:15:16.779Z,37.40
2018-06-10T14:17:44.349Z,37.80
2018-06-10T14:20:11.941Z,38.50
2018-06-10T14:22:39.520Z,38.70
2018-06-10T14:25:07.124Z,38.80
2018-06-10T14:27:34.775Z,38.00
2018-06-10T14:30:02.418Z,37.70
2018-06-10T14:32:30.070Z,37.70
2018-06-10T14:34:57.676Z,38.50
2018-06-10T14:37:25.328Z,39.70
2018-06-10T14:39:52.924Z,40.10
2018-06-10T14:42:20.592Z,40.80
2018-06-10T14:44:48.197Z,41.00
2018-06-10T14:47:15.820Z,40.30
2018-06-10T14:49:43.469Z,40.10
2018-06-10T14:52:11.060Z,40.30
2018-06-10T14:54:38.649Z,40.50
2018-06-10T14:57:06.240Z,40.70
2018-06-10T14:59:33.828Z,40.70
2018-06-10T15:02:02.526Z,40.10
2018-06-10T15:04:31.140Z,38.90
2018-06-10T15:06:58.752Z,39.10
2018-06-10T15:09:26.447Z,39.50
2018-06-10T15:11:54.048Z,40.00
2018-06-10T15:14:22.693Z,39.80
2018-06-10T15:16:50.316Z,37.80
2018-06-10T15:19:17.904Z,36.30
2018-06-10T15:21:46.528Z,35.20
2018-06-10T15:24:14.149Z,34.90
2018-06-10T15:26:41.748Z,34.90
2018-06-10T15:31:37.528Z,35.80
2018-06-10T15:34:06.983Z,36.60
2018-06-10T15:36:35.265Z,36.80
2018-06-10T15:41:30.669Z,36.20
2018-06-10T15:43:58.268Z,36.80
2018-06-10T15:46:26.900Z,37.20
2018-06-10T15:48:54.604Z,37.10
2018-06-10T15:51:22.192Z,37.70
2018-06-10T15:53:49.828Z,38.70
2018-06-10T15:56:17.469Z,39.90
2018-06-10T15:58:45.117Z,40.40
2018-06-10T16:01:12.688Z,40.50
2018-06-10T16:03:40.299Z,39.90
2018-06-10T16:06:07.933Z,39.90
2018-06-10T16:08:35.524Z,40.70
2018-06-10T16:11:03.190Z,41.30
2018-06-10T16:13:30.779Z,41.20
2018-06-10T16:15:58.405Z,41.50
2018-06-10T16:18:25.996Z,42.10
2018-06-10T16:20:53.604Z,42.30
2018-06-10T16:23:21.205Z,42.40
2018-06-10T16:25:48.793Z,43.00
2018-06-10T16:28:16.384Z,43.50
2018-06-10T16:30:45.024Z,43.30
2018-06-10T16:33:12.646Z,42.80
2018-06-10T16:35:40.268Z,42.50
2018-06-10T16:38:07.893Z,42.20
2018-06-10T16:40:35.499Z,40.80
2018-06-10T16:45:30.965Z,39.70
2018-06-10T16:47:58.571Z,38.70
2018-06-10T16:50:26.252Z,38.30
2018-06-10T16:52:53.866Z,38.70
2018-06-10T16:55:21.472Z,39.30
2018-06-10T17:00:16.585Z,39.80
2018-06-10T17:02:44.337Z,39.20
2018-06-10T17:05:12.953Z,39.20
2018-06-10T17:07:40.565Z,39.10
2018-06-10T17:10:08.140Z,38.30
2018-06-10T17:12:35.724Z,37.10
2018-06-10T17:15:03.365Z,35.40
2018-06-10T17:19:58.520Z,32.40
2018-06-10T17:22:27.219Z,31.60
2018-06-10T17:24:54.877Z,31.00
2018-06-10T17:27:22.515Z,30.70
2018-06-10T17:29:50.110Z,30.40
2018-06-10T17:32:17.845Z,30.30
2018-06-10T17:34:45.465Z,30.20
2018-06-10T17:39:40.584Z,29.50
2018-06-10T17:44:36.665Z,29.20
2018-06-10T17:47:04.336Z,29.20
2018-06-10T17:49:31.932Z,29.10
2018-06-10T17:51:59.521Z,29.10
2018-06-10T17:54:27.121Z,28.90
2018-06-10T17:56:54.724Z,28.80
2018-06-10T17:59:22.364Z,28.40
2018-06-10T18:01:50.007Z,28.10
2018-06-10T18:04:17.591Z,27.90
2018-06-10T18:06:45.183Z,27.70
2018-06-10T18:09:12.788Z,27.70
2018-06-10T18:11:40.377Z,27.60
2018-06-10T18:14:07.993Z,27.40
2018-06-10T18:16:35.593Z,27.10
2018-06-10T18:19:03.192Z,27.00
2018-06-10T18:21:30.800Z,26.80
2018-06-10T18:23:58.369Z,26.70
2018-06-10T18:26:25.937Z,26.60
2018-06-10T18:28:53.567Z,26.20
2018-06-10T18:31:21.177Z,26.00
2018-06-10T18:33:48.888Z,25.90
2018-06-10T18:36:16.517Z,25.80
2018-06-10T18:38:44.233Z,25.70
2018-06-10T18:41:11.836Z,25.40
2018-06-10T18:43:39.397Z,25.30
2018-06-10T18:48:34.549Z,25.10
2018-06-10T18:51:02.900Z,24.70
2018-06-10T18:53:30.568Z,24.50
2018-06-10T18:55:58.154Z,24.30
2018-06-10T18:58:25.928Z,24.10
2018-06-10T19:00:53.557Z,24.00
2018-06-10T19:03:21.125Z,23.90
2018-06-10T19:08:16.920Z,23.80
2018-06-10T19:10:44.505Z,23.80
2018-06-10T19:13:12.141Z,23.50
2018-06-10T19:15:39.771Z,23.30
2018-06-10T19:18:07.368Z,23.10
2018-06-10T19:20:34.952Z,22.90
2018-06-10T19:23:03.281Z,22.50
2018-06-10T19:25:30.908Z,22.10
2018-06-10T19:27:58.540Z,21.80
2018-06-10T19:30:26.223Z,21.60
2018-06-10T19:32:53.817Z,21.70
2018-06-10T19:35:21.394Z,21.60
2018-06-10T19:37:48.947Z,21.60
2018-06-10T19:40:16.540Z,21.60
2018-06-10T19:42:44.089Z,21.50
2018-06-10T19:45:11.685Z,21.40
2018-06-10T19:47:39.248Z,21.40
2018-06-10T19:50:06.874Z,21.40
2018-06-10T19:52:35.033Z,21.40
2018-06-10T19:55:02.687Z,21.30
2018-06-10T19:57:30.264Z,21.30
2018-06-10T19:59:58.558Z,21.30
2018-06-10T20:02:26.141Z,21.30
2018-06-10T20:04:53.723Z,21.20
2018-06-10T20:07:21.329Z,21.20
2018-06-10T20:09:48.992Z,21.00
2018-06-10T20:12:17.642Z,20.90
2018-06-10T20:14:45.240Z,20.90
2018-06-10T20:17:12.821Z,20.60
2018-06-10T20:19:40.451Z,20.30
2018-06-10T20:22:08.036Z,20.20
2018-06-10T20:24:35.676Z,20.00
2018-06-10T20:27:03.322Z,20.00
2018-06-10T20:29:30.916Z,19.90
2018-06-10T20:31:58.514Z,19.80
2018-06-10T20:34:26.227Z,19.70
2018-06-10T20:36:53.848Z,19.60
2018-06-10T20:39:21.438Z,19.60
2018-06-10T20:41:49.008Z,19.70
2018-06-10T20:44:16.633Z,19.90
2018-06-10T20:46:44.191Z,20.00
2018-06-10T20:49:11.829Z,20.10
2018-06-10T20:54:07.764Z,20.20
2018-06-10T20:59:04.067Z,20.10
2018-06-10T21:01:31.724Z,19.80
2018-06-10T21:03:59.312Z,19.50
2018-06-10T21:06:26.880Z,19.30
2018-06-10T21:08:54.472Z,19.40
2018-06-10T21:11:22.062Z,19.50
2018-06-10T21:13:49.684Z,19.60
2018-06-10T21:16:18.029Z,19.70
2018-06-10T21:18:45.613Z,19.70
2018-06-10T21:21:13.196Z,19.70
2018-06-10T21:23:40.876Z,19.70
2018-06-10T21:26:08.471Z,19.60
2018-06-10T21:28:36.046Z,19.60
2018-06-10T21:33:31.168Z,19.40
2018-06-10T21:35:58.852Z,19.40
2018-06-10T21:38:26.480Z,19.30
2018-06-10T21:40:54.157Z,19.20
2018-06-10T21:43:21.777Z,19.10
2018-06-10T21:45:49.409Z,18.90
2018-06-10T21:48:16.960Z,18.80
2018-06-10T21:50:44.608Z,18.70
2018-06-10T21:53:13.053Z,20.10
2018-06-10T21:55:40.624Z,18.70
2018-06-10T21:58:08.356Z,18.70
2018-06-10T22:00:35.965Z,18.60
2018-06-10T22:03:03.576Z,18.60
2018-06-10T22:05:31.192Z,18.60
2018-06-10T22:10:26.347Z,18.60
2018-06-10T22:12:53.925Z,18.60
2018-06-10T22:15:22.169Z,18.50
2018-06-10T22:17:49.734Z,18.70
2018-06-10T22:20:17.309Z,18.90
2018-06-10T22:22:44.876Z,19.10
2018-06-10T22:25:12.444Z,19.20
2018-06-10T22:27:41.052Z,19.30
2018-06-10T22:30:08.691Z,19.40
2018-06-10T22:32:36.239Z,19.40
2018-06-10T22:35:03.820Z,19.40
2018-06-10T22:37:31.402Z,19.40
2018-06-10T22:39:58.972Z,19.30
2018-06-10T22:42:26.539Z,19.40
2018-06-10T22:44:54.092Z,19.40
2018-06-10T22:47:21.664Z,19.40
2018-06-10T22:49:49.276Z,19.50
2018-06-10T22:52:16.877Z,19.50
2018-06-10T22:54:45.388Z,19.40
2018-06-10T22:57:13.056Z,19.40
2018-06-10T22:59:40.652Z,19.40
2018-06-10T23:02:09.092Z,19.30
2018-06-10T23:04:36.753Z,19.40
2018-06-10T23:07:04.406Z,19.40
2018-06-10T23:09:31.979Z,19.40
2018-06-10T23:11:59.611Z,19.40
2018-06-10T23:14:27.179Z,19.40
2018-06-10T23:16:54.825Z,19.40
2018-06-10T23:19:23.001Z,19.40
2018-06-10T23:21:50.561Z,19.30
2018-06-10T23:26:46.313Z,19.30
2018-06-10T23:29:13.887Z,19.30
2018-06-10T23:31:41.438Z,19.30
2018-06-10T23:34:09.020Z,19.30
2018-06-10T23:36:36.653Z,19.20
2018-06-10T23:39:06.284Z,19.20
2018-06-10T23:41:34.104Z,19.20
2018-06-10T23:44:01.708Z,19.20
2018-06-10T23:46:29.293Z,19.10
2018-06-10T23:48:56.866Z,19.10
2018-06-10T23:51:24.577Z,19.10
2018-06-10T23:53:52.143Z,19.10
2018-06-10T23:56:19.716Z,19.00
2018-06-10T23:58:47.276Z,19.10
